Time;durP1;ratioP1;P1;durP2;ratioP2;P2;SDS_P1;SDS_P2;PMS_P1;PMS_P2;Temp;Humidity;BMP_temperature;BMP_pressure;BME280_temperature;BME280_humidity;BME280_pressure;Samples;Min_cycle;Max_cycle;Signal;HPM_P1;HPM_P2
2021/08/20 11:21:46;;;;;;;4.93;2.27;;;;;;;26.19;42.40;97482.05;129287;1095;61180;-57
2021/08/20 11:27:56;;;;;;;2.10;1.80;;;;;;;26.45;42.33;97481.20;129286;1095;61295;-58
2021/08/20 11:34:05;;;;;;;2.70;1.90;;;;;;;26.65;41.82;97482.77;129298;1095;61311;-57
2021/08/20 11:40:13;;;;;;;3.03;2.03;;;;;;;26.83;41.28;97471.36;129311;1095;61125;-56
2021/08/20 11:46:23;;;;;;;2.90;2.10;;;;;;;27.00;40.99;97465.52;129301;1094;61196;-55
2021/08/20 11:56:15;;;;;;;3.43;1.97;;;;;;;27.19;40.25;97456.55;129300;1095;61651;-56
2021/08/20 12:02:23;;;;;;;3.77;1.90;;;;;;;27.28;40.00;97444.52;129298;1095;61113;-57
2021/08/20 12:08:32;;;;;;;2.87;2.27;;;;;;;27.38;39.97;97431.44;129285;1095;61332;-55
2021/08/20 12:22:22;;;;;;;3.70;2.07;;;;;;;27.53;39.56;97433.80;129260;1095;61102;-64
2021/08/20 12:28:41;;;;;;;3.95;1.88;;;;;;;27.59;39.31;97430.26;129300;1093;61085;-61
2021/08/20 12:39:21;;;;;;;3.00;2.00;;;;;;;27.69;39.44;97429.76;129280;1095;61313;-56
2021/08/20 12:45:30;;;;;;;4.00;1.97;;;;;;;27.72;39.27;97415.08;129290;1095;61096;-64
2021/08/20 12:51:39;;;;;;;2.83;1.77;;;;;;;27.74;39.00;97411.16;129236;1095;61177;-67
2021/08/20 12:57:50;;;;;;;2.43;1.83;;;;;;;27.81;39.08;97417.27;129031;1095;61108;-73
2021/08/20 13:03:59;;;;;;;2.70;1.97;;;;;;;27.87;38.79;97404.81;129000;1095;61236;-68
2021/08/20 13:10:12;;;;;;;3.77;2.10;;;;;;;27.88;38.40;97396.55;128998;1095;61226;-72
2021/08/20 13:18:57;;;;;;;2.70;1.90;;;;;;;27.96;37.67;97388.70;114775;1197;597339;-64
2021/08/20 13:21:25;;;;;;;3.10;2.30;;;;;;;27.94;37.35;97389.55;115906;1188;57526;-64
2021/08/20 13:23:54;;;;;;;3.60;2.20;;;;;;;27.94;37.36;97391.16;115963;1188;57875;-62
2021/08/20 13:26:24;;;;;;;9.00;2.60;;;;;;;27.93;37.30;97390.23;115983;1188;67970;-62
2021/08/20 13:28:52;;;;;;;2.90;2.10;;;;;;;27.92;37.32;97395.68;115994;1188;68253;-63
2021/08/20 13:32:23;;;;;;;3.90;2.30;;;;;;;27.93;37.22;97393.67;113602;1200;596096;-62
2021/08/20 13:34:55;;;;;;;4.50;2.30;;;;;;;27.89;37.30;97394.76;115493;1191;57911;-59
2021/08/20 13:37:28;;;;;;;2.70;2.20;;;;;;;27.89;37.32;97395.60;115519;1187;57552;-61
2021/08/20 13:39:59;;;;;;;3.30;1.90;;;;;;;27.88;37.48;97393.50;115503;1191;69084;-58
2021/08/20 13:42:31;;;;;;;3.20;2.20;;;;;;;27.87;37.55;97396.36;115494;1192;67454;-59
2021/08/20 13:45:02;;;;;;;3.60;2.00;;;;;;;27.87;37.44;97394.13;115510;1192;68233;-66
2021/08/20 13:47:33;;;;;;;3.70;2.00;;;;;;;27.85;37.35;97394.51;115616;1190;57504;-61
2021/08/20 13:50:10;;;;;;;3.10;1.90;;;;;;;27.85;37.37;97395.05;115608;1187;57470;-64
2021/08/20 13:52:40;;;;;;;4.20;2.10;;;;;;;27.86;37.32;97392.80;115624;1187;68942;-66
2021/08/20 13:55:11;;;;;;;3.00;1.70;;;;;;;27.87;37.34;97396.27;115604;1187;69141;-64
2021/08/20 13:57:42;;;;;;;3.90;2.20;;;;;;;27.88;37.39;97393.41;115531;1187;68378;-63
2021/08/20 14:00:14;;;;;;;3.20;1.90;;;;;;;27.88;37.21;97394.73;115477;1192;57903;-63
2021/08/20 14:02:46;;;;;;;4.00;2.50;;;;;;;27.89;36.96;97395.83;115456;1192;57889;-54
2021/08/20 14:05:18;;;;;;;4.10;2.50;;;;;;;27.89;36.94;97398.23;115654;1188;69667;-55
2021/08/20 14:07:48;;;;;;;3.60;2.40;;;;;;;27.89;37.16;97403.77;115577;1188;69266;-55
2021/08/20 14:10:23;;;;;;;4.00;2.10;;;;;;;27.87;37.27;97398.34;115623;1188;69220;-55
2021/08/20 14:12:53;;;;;;;6.90;2.60;;;;;;;27.86;37.38;97397.64;115731;1188;58013;-51
2021/08/20 14:15:24;;;;;;;3.70;2.30;;;;;;;27.85;37.45;97396.00;115670;1189;57955;-54
2021/08/20 14:17:55;;;;;;;3.20;2.30;;;;;;;27.83;37.30;97396.11;115714;1187;69643;-53
2021/08/20 14:20:25;;;;;;;3.40;2.30;;;;;;;27.81;37.02;97394.75;115783;1188;69193;-54
2021/08/20 14:22:56;;;;;;;2.80;2.00;;;;;;;27.78;36.96;97392.42;115614;1188;68457;-54
2021/08/20 14:25:27;;;;;;;2.40;1.60;;;;;;;27.76;36.98;97388.59;115685;1188;58271;-51
2021/08/20 14:27:58;;;;;;;3.60;2.10;;;;;;;27.75;37.02;97386.42;115609;1188;58305;-54
2021/08/20 14:30:32;;;;;;;3.20;2.30;;;;;;;27.74;37.17;97385.20;115646;1188;68939;-50
2021/08/20 14:33:04;;;;;;;3.60;2.30;;;;;;;27.73;37.18;97384.66;115660;1184;68465;-54
2021/08/20 14:35:35;;;;;;;4.40;2.30;;;;;;;27.72;37.33;97384.42;115710;1188;69217;-54
2021/08/20 14:38:07;;;;;;;2.70;2.10;;;;;;;27.71;37.38;97380.45;115690;1188;57968;-56
2021/08/20 14:40:38;;;;;;;2.90;2.10;;;;;;;27.71;37.34;97375.83;115825;1184;58024;-51
2021/08/20 14:43:07;;;;;;;3.70;2.20;;;;;;;27.70;37.40;97375.55;115668;1188;69756;-56
2021/08/20 14:45:37;;;;;;;2.60;1.90;;;;;;;27.70;37.41;97375.42;115687;1188;68839;-52
2021/08/20 14:48:06;;;;;;;3.20;2.00;;;;;;;27.70;37.31;97376.66;115643;1188;69361;-49
2021/08/20 14:50:36;;;;;;;3.10;2.10;;;;;;;27.68;37.21;97374.85;115667;1187;57934;-54
2021/08/20 14:53:06;;;;;;;2.20;1.50;;;;;;;27.68;37.18;97374.71;115685;1187;57952;-51
2021/08/20 14:55:35;;;;;;;2.90;2.10;;;;;;;27.69;37.06;97376.09;115655;1184;68819;-51
2021/08/20 14:58:09;;;;;;;3.50;2.00;;;;;;;27.67;36.98;97372.87;115656;1188;68243;-50
2021/08/20 15:00:43;;;;;;;2.80;1.90;;;;;;;27.66;37.03;97373.71;115641;1188;69298;-52
2021/08/20 15:03:13;;;;;;;4.10;2.00;;;;;;;27.66;37.09;97373.39;115677;1188;58303;-52
2021/08/20 15:05:44;;;;;;;2.30;1.70;;;;;;;27.65;37.23;97371.70;115620;1188;58378;-50
2021/08/20 15:08:15;;;;;;;3.00;2.00;;;;;;;27.64;37.41;97371.51;115622;1188;68763;-51
2021/08/20 15:10:46;;;;;;;2.30;1.90;;;;;;;27.63;37.37;97373.16;115654;1188;69103;-53
2021/08/20 15:13:18;;;;;;;3.30;2.00;;;;;;;27.62;37.40;97372.43;115587;1188;68493;-55
2021/08/20 15:15:52;;;;;;;2.90;1.90;;;;;;;27.61;37.41;97374.52;115618;1186;58400;-52
2021/08/20 15:18:22;;;;;;;2.90;1.70;;;;;;;27.61;37.45;97375.46;115579;1188;58312;-51
2021/08/20 15:20:53;;;;;;;3.10;2.00;;;;;;;27.60;37.44;97377.48;115647;1188;69721;-51
2021/08/20 15:23:24;;;;;;;2.30;2.00;;;;;;;27.59;37.38;97377.63;115619;1188;69445;-50
2021/08/20 15:25:55;;;;;;;3.60;1.90;;;;;;;27.59;37.21;97377.73;115622;1188;69129;-51
2021/08/20 15:28:27;;;;;;;2.40;1.60;;;;;;;27.58;37.32;97378.25;115669;1188;57927;-54
2021/08/20 15:30:59;;;;;;;2.40;1.80;;;;;;;27.57;37.34;97377.11;115650;1188;57973;-51
2021/08/20 15:33:33;;;;;;;2.70;2.00;;;;;;;27.56;37.44;97374.35;115714;1188;69104;-49
2021/08/20 15:36:04;;;;;;;2.90;2.00;;;;;;;27.56;37.56;97374.06;115670;1188;69172;-52
2021/08/20 15:38:34;;;;;;;2.90;1.90;;;;;;;27.55;37.42;97372.92;115787;1184;68276;-51
2021/08/20 15:41:08;;;;;;;2.90;2.00;;;;;;;27.54;37.33;97369.70;115657;1188;57930;-54
2021/08/20 15:43:38;;;;;;;3.60;2.10;;;;;;;27.53;37.41;97371.89;115654;1188;57937;-53
2021/08/20 15:46:09;;;;;;;2.70;1.90;;;;;;;27.52;37.42;97370.41;115642;1188;68937;-51
2021/08/20 15:48:40;;;;;;;2.30;1.70;;;;;;;27.52;37.47;97372.61;115699;1188;68429;-54
2021/08/20 15:51:11;;;;;;;3.10;1.80;;;;;;;27.51;37.40;97373.44;115807;1184;67833;-50
2021/08/20 15:53:43;;;;;;;2.40;1.80;;;;;;;27.51;37.43;97373.73;115727;1186;57979;-51
2021/08/20 15:56:15;;;;;;;2.70;1.90;;;;;;;27.50;37.41;97374.69;115749;1186;57959;-55
2021/08/20 15:58:46;;;;;;;2.70;1.80;;;;;;;27.49;37.35;97379.10;115671;1188;69750;-54
2021/08/20 16:01:19;;;;;;;3.80;2.10;;;;;;;27.49;37.40;97377.42;115698;1188;68217;-55
2021/08/20 16:03:50;;;;;;;3.40;2.10;;;;;;;27.48;37.50;97379.29;115622;1184;68560;-53
2021/08/20 16:06:21;;;;;;;4.10;2.00;;;;;;;27.47;37.46;97376.54;115685;1188;57979;-55
2021/08/20 16:08:52;;;;;;;2.80;2.00;;;;;;;27.46;37.44;97378.52;115646;1188;57902;-55
2021/08/20 16:11:23;;;;;;;2.80;1.90;;;;;;;27.45;37.50;97377.58;115674;1188;69751;-54
2021/08/20 16:13:55;;;;;;;3.00;2.00;;;;;;;27.44;37.45;97380.39;115707;1184;68684;-51
2021/08/20 16:16:26;;;;;;;3.40;2.10;;;;;;;27.43;37.41;97384.49;115640;1188;68488;-54
2021/08/20 16:18:57;;;;;;;2.80;2.20;;;;;;;27.41;37.50;97386.08;115691;1188;57975;-51
2021/08/20 16:21:29;;;;;;;3.20;2.20;;;;;;;27.40;37.53;97383.58;115797;1187;57962;-68
2021/08/20 16:23:59;;;;;;;2.90;2.10;;;;;;;27.38;37.48;97385.86;115721;1184;69522;-55
2021/08/20 16:26:30;;;;;;;2.70;1.90;;;;;;;27.37;37.55;97388.39;115635;1188;68566;-54
2021/08/20 16:29:00;;;;;;;3.60;2.10;;;;;;;27.34;37.56;97391.30;115643;1188;68294;-52
2021/08/20 16:31:31;;;;;;;2.70;1.90;;;;;;;27.32;37.73;97392.30;115557;1187;58426;-53
2021/08/20 16:34:02;;;;;;;4.60;2.30;;;;;;;27.29;37.70;97392.33;115650;1185;58033;-54
2021/08/20 16:36:33;;;;;;;3.30;2.20;;;;;;;27.26;37.75;97390.41;115634;1188;68961;-54
2021/08/20 16:39:04;;;;;;;3.30;2.50;;;;;;;27.24;37.80;97391.84;115694;1189;68686;-51
2021/08/20 16:41:34;;;;;;;3.00;2.60;;;;;;;27.21;37.82;97391.52;115660;1188;68479;-52
2021/08/20 16:44:05;;;;;;;2.90;2.10;;;;;;;27.18;37.87;97393.69;115656;1188;58019;-53
2021/08/20 16:46:36;;;;;;;3.60;2.10;;;;;;;27.15;37.89;97398.91;115674;1188;57972;-50
2021/08/20 16:49:06;;;;;;;3.70;2.30;;;;;;;27.12;37.74;97396.86;115641;1184;68792;-50
2021/08/20 16:51:38;;;;;;;2.90;2.10;;;;;;;27.09;37.80;97395.36;115627;1188;69187;-51
2021/08/20 16:54:09;;;;;;;3.20;2.10;;;;;;;27.07;37.88;97395.95;115597;1188;68440;-55
2021/08/20 16:56:42;;;;;;;2.70;1.90;;;;;;;27.05;37.76;97397.16;115680;1185;58281;-54
2021/08/20 16:59:13;;;;;;;2.60;2.00;;;;;;;27.04;37.76;97397.66;115580;1188;58448;-53
2021/08/20 17:01:44;;;;;;;2.90;2.00;;;;;;;27.02;37.84;97397.73;115657;1188;69867;-54
2021/08/20 17:04:14;;;;;;;3.40;2.20;;;;;;;27.02;37.81;97398.72;115622;1189;68624;-54
2021/08/20 17:06:45;;;;;;;3.20;2.00;;;;;;;27.00;37.63;97397.01;115687;1188;68556;-54
2021/08/20 17:09:17;;;;;;;3.60;2.10;;;;;;;26.99;37.71;97398.36;115738;1184;57972;-51
2021/08/20 17:11:48;;;;;;;2.90;2.10;;;;;;;26.98;37.76;97401.00;115662;1188;57943;-56
2021/08/20 17:14:19;;;;;;;3.50;2.20;;;;;;;26.97;37.70;97403.83;115659;1188;69686;-56
2021/08/20 17:16:50;;;;;;;3.20;2.10;;;;;;;26.96;37.77;97408.41;115671;1188;67353;-53
2021/08/20 17:19:22;;;;;;;4.00;2.30;;;;;;;26.95;37.98;97410.77;115661;1188;68413;-54
2021/08/20 17:21:53;;;;;;;4.00;2.30;;;;;;;26.92;38.40;97413.64;115575;1188;57962;-57
2021/08/20 17:24:24;;;;;;;3.10;1.90;;;;;;;26.89;38.31;97413.57;115577;1188;57950;-53
2021/08/20 17:26:54;;;;;;;3.50;2.10;;;;;;;26.85;38.17;97418.54;115683;1188;67834;-53
2021/08/20 17:29:25;;;;;;;4.10;2.20;;;;;;;26.81;38.08;97422.45;115609;1184;68556;-53
2021/08/20 17:31:55;;;;;;;5.30;3.10;;;;;;;26.77;38.11;97423.08;115571;1188;68720;-55
2021/08/20 17:34:26;;;;;;;4.30;2.60;;;;;;;26.73;38.11;97426.41;115622;1188;57892;-55
2021/08/20 17:36:56;;;;;;;7.30;2.80;;;;;;;26.69;38.29;97428.73;115590;1186;57942;-53
2021/08/20 17:39:29;;;;;;;6.50;3.40;;;;;;;26.64;38.44;97428.09;115626;1188;68605;-50
2021/08/20 17:42:00;;;;;;;4.40;2.60;;;;;;;26.60;38.45;97435.65;115621;1188;69408;-53
2021/08/20 17:44:30;;;;;;;4.10;2.80;;;;;;;26.56;38.43;97436.95;115618;1188;68513;-55
2021/08/20 17:47:01;;;;;;;4.80;3.20;;;;;;;26.51;38.47;97436.14;115673;1188;58747;-51
2021/08/20 17:49:32;;;;;;;4.50;2.80;;;;;;;26.47;38.63;97437.36;115745;1188;58742;-55
2021/08/20 17:52:06;;;;;;;3.10;2.40;;;;;;;26.43;38.71;97435.70;115687;1188;70565;-51
2021/08/20 17:54:37;;;;;;;4.30;2.90;;;;;;;26.39;38.80;97433.06;115774;1188;68397;-54
2021/08/20 17:57:08;;;;;;;3.70;2.80;;;;;;;26.38;38.81;97432.23;115706;1185;70191;-53
2021/08/20 17:59:40;;;;;;;3.10;2.70;;;;;;;26.36;38.81;97432.95;115595;1185;58809;-50
2021/08/20 18:02:16;;;;;;;5.80;2.90;;;;;;;26.35;38.86;97436.84;115692;1184;58747;-54
2021/08/20 18:04:46;;;;;;;3.70;2.40;;;;;;;26.35;38.84;97437.65;115666;1188;71066;-51
2021/08/20 18:07:17;;;;;;;3.50;2.50;;;;;;;26.34;38.85;97442.40;115647;1190;69010;-52
2021/08/20 18:09:48;;;;;;;3.50;2.50;;;;;;;26.34;38.80;97443.88;115660;1188;68998;-51
2021/08/20 18:12:19;;;;;;;4.60;2.80;;;;;;;26.33;38.85;97445.45;115602;1188;58830;-52
2021/08/20 18:14:54;;;;;;;4.40;2.90;;;;;;;26.31;38.87;97449.54;115605;1187;59637;-51
2021/08/20 18:17:27;;;;;;;3.30;2.40;;;;;;;26.31;38.88;97455.35;115611;1184;71076;-55
2021/08/20 18:19:57;;;;;;;4.60;2.70;;;;;;;26.30;38.94;97456.59;115615;1188;69157;-53
2021/08/20 18:22:28;;;;;;;4.10;2.90;;;;;;;26.29;38.98;97453.45;115586;1184;68258;-53
2021/08/20 18:24:58;;;;;;;4.80;3.40;;;;;;;26.28;39.03;97459.35;115522;1189;58746;-54
2021/08/20 18:27:29;;;;;;;7.20;5.20;;;;;;;26.27;39.09;97457.92;115556;1187;58761;-54
2021/08/20 18:30:00;;;;;;;8.20;5.00;;;;;;;26.25;39.32;97459.23;115552;1188;70601;-57
2021/08/20 18:32:30;;;;;;;9.50;6.30;;;;;;;26.23;39.39;97459.66;115610;1184;69123;-52
2021/08/20 18:35:02;;;;;;;8.80;5.50;;;;;;;26.21;39.67;97461.06;115544;1188;67515;-52
2021/08/20 18:37:33;;;;;;;8.90;6.00;;;;;;;26.16;39.70;97468.32;115700;1184;58723;-53
2021/08/20 18:40:09;;;;;;;8.10;5.50;;;;;;;26.11;39.82;97469.70;115622;1186;58816;-53
2021/08/20 18:42:42;;;;;;;7.00;4.80;;;;;;;26.05;39.81;97470.13;115601;1184;70524;-51
2021/08/20 18:45:13;;;;;;;10.50;5.80;;;;;;;26.01;39.89;97468.59;115516;1188;69254;-54
2021/08/20 18:47:44;;;;;;;21.60;7.80;;;;;;;25.98;40.36;97469.22;115580;1188;69084;-55
2021/08/20 18:50:14;;;;;;;30.90;9.00;;;;;;;25.95;40.44;97467.91;115610;1183;58688;-52
2021/08/20 18:52:50;;;;;;;16.00;7.50;;;;;;;25.93;40.73;97468.07;115565;1188;58742;-48
2021/08/20 18:55:22;;;;;;;12.50;6.40;;;;;;;25.91;40.60;97470.42;115599;1188;70561;-53
2021/08/20 18:57:53;;;;;;;11.40;6.20;;;;;;;25.89;40.51;97471.66;115604;1188;69037;-55
2021/08/20 19:00:24;;;;;;;8.70;5.40;;;;;;;25.86;40.66;97473.55;115571;1188;69300;-52
2021/08/20 19:02:55;;;;;;;10.90;5.60;;;;;;;25.83;40.48;97469.69;115619;1187;59153;-52
2021/08/20 19:05:26;;;;;;;10.00;5.50;;;;;;;25.79;40.56;97472.45;115612;1184;58834;-51
2021/08/20 19:07:56;;;;;;;9.00;5.40;;;;;;;25.75;40.64;97476.71;115633;1188;70599;-52
2021/08/20 19:10:28;;;;;;;8.90;5.00;;;;;;;25.72;40.62;97480.11;115674;1185;69395;-52
2021/08/20 19:12:59;;;;;;;9.00;5.30;;;;;;;25.69;40.70;97478.51;115561;1188;68579;-55
2021/08/20 19:15:30;;;;;;;8.90;5.20;;;;;;;25.68;40.69;97481.84;115641;1188;58758;-54
2021/08/20 19:18:01;;;;;;;9.20;4.80;;;;;;;25.67;40.71;97484.36;115614;1184;58459;-55
2021/08/20 19:20:32;;;;;;;11.10;5.30;;;;;;;25.66;40.67;97481.27;115611;1188;70357;-52
2021/08/20 19:23:04;;;;;;;8.50;5.00;;;;;;;25.65;40.73;97482.64;115611;1185;68883;-55
2021/08/20 19:25:34;;;;;;;7.80;5.10;;;;;;;25.65;40.71;97484.63;115627;1188;69342;-53
2021/08/20 19:28:05;;;;;;;8.40;5.00;;;;;;;25.65;40.72;97485.88;115733;1184;58779;-54
2021/08/20 19:30:36;;;;;;;9.50;4.90;;;;;;;25.64;40.63;97487.19;115548;1188;59116;-55
2021/08/20 19:33:06;;;;;;;8.90;4.70;;;;;;;25.65;40.75;97485.01;115803;1187;69781;-53
2021/08/20 19:35:40;;;;;;;7.70;4.80;;;;;;;25.64;40.73;97487.36;115598;1188;69198;-53
2021/08/20 19:38:10;;;;;;;8.00;4.50;;;;;;;25.64;40.65;97486.32;115613;1188;69094;-54
2021/08/20 19:40:41;;;;;;;7.60;4.50;;;;;;;25.64;40.70;97490.23;115609;1188;58783;-51
2021/08/20 19:43:12;;;;;;;8.10;4.50;;;;;;;25.64;40.71;97487.80;115611;1184;58763;-53
2021/08/20 19:45:43;;;;;;;7.70;4.50;;;;;;;25.63;40.78;97488.38;115737;1184;68947;-50
2021/08/20 19:48:13;;;;;;;6.60;4.80;;;;;;;25.62;40.73;97486.58;115620;1187;68416;-54
2021/08/20 19:50:44;;;;;;;8.00;4.70;;;;;;;25.61;40.71;97488.67;115670;1188;68768;-56
2021/08/20 19:53:14;;;;;;;7.80;4.20;;;;;;;25.61;40.74;97489.05;115680;1188;58776;-54
2021/08/20 19:55:45;;;;;;;8.10;4.40;;;;;;;25.60;40.74;97486.16;115702;1188;58755;-52
2021/08/20 19:58:15;;;;;;;6.30;4.50;;;;;;;25.59;40.80;97489.33;115694;1185;70576;-51
2021/08/20 20:00:46;;;;;;;8.00;4.10;;;;;;;25.58;40.77;97490.73;115685;1188;70265;-52
2021/08/20 20:03:16;;;;;;;8.30;4.40;;;;;;;25.58;40.79;97490.09;115631;1188;69230;-53
2021/08/20 20:05:47;;;;;;;7.60;4.40;;;;;;;25.56;40.82;97489.70;115679;1187;58762;-51
2021/08/20 20:08:18;;;;;;;5.80;4.20;;;;;;;25.54;40.84;97493.36;115632;1188;58740;-52
2021/08/20 20:10:48;;;;;;;7.10;4.10;;;;;;;25.54;40.80;97493.89;115639;1189;70535;-52
2021/08/20 20:13:19;;;;;;;6.50;4.20;;;;;;;25.53;40.85;97495.84;115660;1188;68229;-54
2021/08/20 20:15:49;;;;;;;6.80;4.20;;;;;;;25.52;40.86;97497.23;115669;1188;68427;-54
2021/08/20 20:18:20;;;;;;;6.80;4.40;;;;;;;25.51;40.90;97503.20;115640;1189;58774;-55
2021/08/20 20:20:51;;;;;;;8.00;4.30;;;;;;;25.49;40.95;97503.48;115659;1188;58731;-56
2021/08/20 20:23:21;;;;;;;7.60;4.00;;;;;;;25.48;40.91;97504.85;115677;1188;70561;-55
2021/08/20 20:25:53;;;;;;;6.70;4.00;;;;;;;25.48;41.00;97503.73;115577;1189;69179;-56
2021/08/20 20:28:23;;;;;;;6.00;4.00;;;;;;;25.47;40.97;97507.89;115604;1188;69088;-53
2021/08/20 20:30:54;;;;;;;5.80;3.90;;;;;;;25.46;40.96;97509.08;115512;1188;58824;-55
2021/08/20 20:33:24;;;;;;;7.60;4.20;;;;;;;25.45;41.00;97506.56;115670;1188;59384;-54
2021/08/20 20:35:55;;;;;;;5.80;4.20;;;;;;;25.45;41.03;97510.73;115666;1189;69789;-55
2021/08/20 20:38:27;;;;;;;5.40;3.60;;;;;;;25.43;41.04;97509.70;115659;1188;69183;-54
2021/08/20 20:40:57;;;;;;;7.10;3.90;;;;;;;25.43;40.98;97511.88;115642;1188;68420;-53
2021/08/20 20:43:29;;;;;;;5.40;3.50;;;;;;;25.40;41.05;97511.58;115664;1188;58787;-51
2021/08/20 20:45:59;;;;;;;5.20;3.50;;;;;;;25.39;41.13;97519.93;115614;1189;58761;-54
2021/08/20 20:48:30;;;;;;;6.10;3.60;;;;;;;25.38;41.09;97522.11;115677;1188;70468;-51
2021/08/20 20:51:02;;;;;;;7.10;3.60;;;;;;;25.37;41.14;97525.06;115690;1188;68467;-52
2021/08/20 20:53:34;;;;;;;5.80;4.10;;;;;;;25.35;41.18;97525.36;115700;1188;68446;-53
2021/08/20 20:56:05;;;;;;;5.60;3.80;;;;;;;25.33;41.21;97526.27;115594;1188;58748;-54
2021/08/20 20:58:35;;;;;;;5.10;3.40;;;;;;;25.32;41.17;97526.63;115618;1187;58700;-54
2021/08/20 21:01:06;;;;;;;5.70;3.70;;;;;;;25.31;41.26;97529.46;115663;1188;69576;-53
2021/08/20 21:03:37;;;;;;;4.70;3.40;;;;;;;25.29;41.26;97529.34;115682;1188;69172;-53
2021/08/20 21:06:07;;;;;;;5.90;3.90;;;;;;;25.28;41.32;97529.70;115655;1188;69191;-54
2021/08/20 21:08:38;;;;;;;6.80;4.20;;;;;;;25.27;41.38;97527.89;115632;1188;58770;-54
2021/08/20 21:11:09;;;;;;;4.90;3.80;;;;;;;25.25;41.44;97533.78;115649;1187;58760;-57
2021/08/20 21:13:40;;;;;;;4.30;3.60;;;;;;;25.24;41.49;97534.88;115615;1185;71238;-49
2021/08/20 21:16:10;;;;;;;5.80;4.00;;;;;;;25.22;41.55;97538.08;115681;1188;69216;-52
2021/08/20 21:18:42;;;;;;;6.20;3.80;;;;;;;25.20;41.60;97538.54;115620;1189;68811;-51
2021/08/20 21:21:18;;;;;;;5.50;3.60;;;;;;;25.19;41.66;97538.77;115654;1188;58759;-53
2021/08/20 21:23:48;;;;;;;4.10;3.60;;;;;;;25.17;41.74;97543.46;115606;1185;58741;-48
2021/08/20 21:26:18;;;;;;;5.10;3.50;;;;;;;25.16;41.71;97545.03;115618;1188;70057;-54
2021/08/20 21:28:48;;;;;;;8.20;4.20;;;;;;;25.14;41.82;97544.89;115549;1189;68483;-54
2021/08/20 21:31:17;;;;;;;5.00;3.90;;;;;;;25.13;41.83;97543.44;115674;1188;68521;-54
2021/08/20 21:33:49;;;;;;;4.80;3.30;;;;;;;25.12;41.80;97540.20;115665;1188;58753;-53
2021/08/20 21:36:19;;;;;;;4.80;3.40;;;;;;;25.10;41.76;97540.06;115676;1188;58755;-53
2021/08/20 21:38:49;;;;;;;5.20;3.50;;;;;;;25.09;41.79;97542.52;115643;1188;69524;-53
2021/08/20 21:41:20;;;;;;;5.40;3.60;;;;;;;25.08;41.93;97539.84;115937;1185;69097;-54
2021/08/20 21:43:51;;;;;;;5.50;3.60;;;;;;;25.07;41.82;97545.23;115683;1189;69226;-52
2021/08/20 21:46:22;;;;;;;4.90;3.30;;;;;;;25.06;41.95;97543.44;115653;1188;58738;-53
2021/08/20 21:48:53;;;;;;;4.40;3.20;;;;;;;25.04;41.99;97542.52;115717;1189;58764;-54
2021/08/20 21:51:24;;;;;;;4.50;3.30;;;;;;;25.04;41.97;97541.73;115639;1187;70940;-52
2021/08/20 21:53:54;;;;;;;4.60;3.50;;;;;;;25.03;41.95;97538.61;115661;1188;69169;-53
2021/08/20 21:56:27;;;;;;;5.10;3.40;;;;;;;25.02;41.97;97538.45;115719;1188;69548;-53
2021/08/20 21:58:58;;;;;;;4.60;3.30;;;;;;;25.02;41.98;97539.52;115751;1188;58709;-53
2021/08/20 22:01:28;;;;;;;5.90;3.60;;;;;;;25.01;42.04;97543.95;115679;1189;58741;-53
2021/08/20 22:03:59;;;;;;;5.30;3.90;;;;;;;25.00;42.05;97546.50;115680;1185;71669;-51
2021/08/20 22:06:28;;;;;;;5.50;3.30;;;;;;;25.00;42.06;97546.36;115661;1188;68535;-48
2021/08/20 22:08:58;;;;;;;4.80;3.30;;;;;;;24.99;42.03;97547.39;115677;1184;69376;-52
2021/08/20 22:11:28;;;;;;;4.00;3.20;;;;;;;24.97;42.02;97548.88;115668;1184;58794;-55
2021/08/20 22:13:58;;;;;;;4.30;3.20;;;;;;;24.96;42.04;97549.52;115720;1183;58731;-50
2021/08/20 22:16:29;;;;;;;5.40;3.30;;;;;;;24.94;42.05;97551.36;115755;1188;70689;-55
2021/08/20 22:19:02;;;;;;;6.00;3.60;;;;;;;24.94;42.01;97554.65;115702;1188;68265;-51
2021/08/20 22:21:32;;;;;;;5.40;3.20;;;;;;;24.92;42.17;97554.41;115654;1188;69051;-54
2021/08/20 22:24:01;;;;;;;3.60;3.00;;;;;;;24.89;42.11;97549.33;115645;1189;58711;-53
2021/08/20 22:26:33;;;;;;;5.10;3.50;;;;;;;24.87;42.18;97552.74;115629;1188;58715;-48
2021/08/20 22:29:03;;;;;;;5.10;3.10;;;;;;;24.85;42.17;97551.27;115714;1188;71011;-50
2021/08/20 22:31:33;;;;;;;5.20;4.00;;;;;;;24.83;42.26;97548.58;115647;1188;69121;-53
2021/08/20 22:34:08;;;;;;;6.40;3.50;;;;;;;24.81;42.24;97545.58;115655;1187;69344;-53
2021/08/20 22:36:37;;;;;;;3.90;2.90;;;;;;;24.79;42.24;97547.23;115663;1188;58741;-54
2021/08/20 22:39:07;;;;;;;4.20;3.20;;;;;;;24.78;42.28;97545.12;115743;1188;58773;-53
2021/08/20 22:41:38;;;;;;;3.90;3.20;;;;;;;24.76;42.38;97544.23;115688;1189;70312;-52
2021/08/20 22:44:12;;;;;;;4.90;3.40;;;;;;;24.74;42.30;97542.89;115630;1188;69244;-54
2021/08/20 22:46:43;;;;;;;4.10;3.40;;;;;;;24.73;42.34;97544.89;115669;1188;69060;-56
2021/08/20 22:49:20;;;;;;;4.50;3.10;;;;;;;24.71;42.48;97545.49;115689;1187;58828;-53
2021/08/20 22:51:51;;;;;;;4.20;3.10;;;;;;;24.69;42.45;97547.46;115718;1188;58764;-52
2021/08/20 22:54:22;;;;;;;3.60;2.80;;;;;;;24.68;42.48;97547.44;115686;1184;69857;-54
2021/08/20 22:56:53;;;;;;;5.70;3.10;;;;;;;24.67;42.43;97547.07;115672;1188;69190;-54
2021/08/20 22:59:24;;;;;;;4.20;3.20;;;;;;;24.65;42.51;97545.30;115622;1188;69153;-56
2021/08/20 23:01:55;;;;;;;4.60;3.30;;;;;;;24.64;42.47;97544.72;115725;1188;58748;-55
2021/08/20 23:04:26;;;;;;;3.70;2.90;;;;;;;24.63;42.51;97544.75;115706;1186;58758;-56
2021/08/20 23:06:57;;;;;;;5.00;2.90;;;;;;;24.61;42.49;97542.94;115688;1188;70333;-55
2021/08/20 23:09:28;;;;;;;3.90;3.20;;;;;;;24.59;42.51;97539.60;115700;1188;68402;-54
2021/08/20 23:11:59;;;;;;;3.90;2.90;;;;;;;24.59;42.56;97538.16;115640;1188;69269;-54
2021/08/20 23:14:30;;;;;;;4.20;3.10;;;;;;;24.58;42.62;97541.48;115722;1186;58740;-51
2021/08/20 23:17:00;;;;;;;4.10;3.10;;;;;;;24.56;42.58;97540.04;115747;1188;58821;-56
2021/08/20 23:19:30;;;;;;;4.50;3.40;;;;;;;24.55;42.64;97541.60;115689;1184;69801;-55
2021/08/20 23:22:01;;;;;;;3.90;3.00;;;;;;;24.54;42.62;97537.80;115629;1188;68516;-53
2021/08/20 23:24:32;;;;;;;4.50;3.00;;;;;;;24.53;42.66;97539.93;115689;1188;68429;-52
2021/08/20 23:27:04;;;;;;;4.10;2.80;;;;;;;24.51;42.63;97539.52;115722;1186;58744;-53
2021/08/20 23:29:35;;;;;;;4.10;3.10;;;;;;;24.50;42.61;97541.08;115688;1186;58761;-54
2021/08/20 23:32:06;;;;;;;4.10;3.10;;;;;;;24.48;42.74;97539.11;115655;1188;69735;-52
2021/08/20 23:34:38;;;;;;;5.00;3.10;;;;;;;24.48;42.74;97540.10;115525;1189;67448;-52
2021/08/20 23:37:09;;;;;;;3.80;2.90;;;;;;;24.46;42.86;97539.41;115611;1188;69217;-53
2021/08/20 23:39:40;;;;;;;4.70;3.20;;;;;;;24.45;42.87;97541.90;115611;1189;58711;-53
2021/08/20 23:42:13;;;;;;;4.60;2.90;;;;;;;24.44;42.81;97542.30;115683;1186;58794;-50
2021/08/20 23:44:45;;;;;;;4.20;3.00;;;;;;;24.43;42.80;97540.73;115560;1189;70580;-57
2021/08/20 23:47:15;;;;;;;4.80;3.30;;;;;;;24.42;42.77;97536.99;115651;1188;69192;-52
2021/08/20 23:49:48;;;;;;;4.50;3.10;;;;;;;24.41;42.88;97532.83;115629;1188;69048;-48
2021/08/20 23:52:19;;;;;;;3.80;2.90;;;;;;;24.39;42.91;97534.20;115531;1189;58815;-53
2021/08/20 23:54:51;;;;;;;4.90;3.40;;;;;;;24.38;42.87;97530.67;115570;1187;58807;-54
2021/08/20 23:57:22;;;;;;;4.10;3.00;;;;;;;24.36;42.85;97533.66;115678;1188;70604;-54
2021/08/20 23:59:53;;;;;;;4.00;3.00;;;;;;;24.35;42.88;97531.09;115537;1189;68381;-54
